Terminal Aerodrome Forecast
Issued by NWS Portland, ME

Home | Current Version | Previous Version | Text Only | Print | Product List | Glossary On
Versions: 1 2 3 4 5 6 7 8 9 10 11 12 13 14 15 16 17 18 19 20
000
FTUS41 KGYX 291853 AAA
TAFPWM
TAF AMD
KPWM 291853Z 2919/3018 16008KT P6SM SCT007 SCT050
     FM292100 16006KT 5SM BR BKN005
     FM300300 17002KT 1SM BR OVC001
     FM301300 20004KT P6SM SCT003=

USA.gov is the U.S. government's official web portal to all federal, state and local government web resources and services.